createdAt,value
2018-03-17T00:02:19.159Z,-2.57
2018-03-17T00:04:45.227Z,-2.55
2018-03-17T00:07:11.291Z,-2.66
2018-03-17T00:09:37.413Z,-2.59
2018-03-17T00:12:03.509Z,-2.60
2018-03-17T00:14:29.557Z,-2.66
2018-03-17T00:16:55.629Z,-2.62
2018-03-17T00:19:21.640Z,-2.67
2018-03-17T00:21:47.665Z,-2.66
2018-03-17T00:24:13.759Z,-2.69
2018-03-17T00:26:39.800Z,-2.74
2018-03-17T00:29:05.868Z,-2.72
2018-03-17T00:31:31.914Z,-2.75
2018-03-17T00:33:58.059Z,-2.72
2018-03-17T00:36:24.148Z,-2.77
2018-03-17T00:38:50.278Z,-2.88
2018-03-17T00:41:16.360Z,-2.80
2018-03-17T00:43:42.428Z,-2.86
2018-03-17T00:46:11.308Z,-2.86
2018-03-17T00:48:37.361Z,-2.94
2018-03-17T00:51:03.407Z,-2.97
2018-03-17T00:53:29.421Z,-2.94
2018-03-17T00:55:55.591Z,-2.91
2018-03-17T00:58:21.706Z,-2.87
2018-03-17T01:00:47.855Z,-2.94
2018-03-17T01:03:13.894Z,-2.90
2018-03-17T01:05:40.019Z,-2.93
2018-03-17T01:08:06.085Z,-3.00
2018-03-17T01:10:32.149Z,-3.05
2018-03-17T01:12:58.277Z,-3.08
2018-03-17T01:15:24.424Z,-3.03
2018-03-17T01:17:50.510Z,-3.01
2018-03-17T01:20:16.526Z,-3.03
2018-03-17T01:22:42.593Z,-3.08
2018-03-17T01:25:08.653Z,-3.11
2018-03-17T01:27:34.678Z,-3.12
2018-03-17T01:30:00.733Z,-3.22
2018-03-17T01:32:26.795Z,-3.25
2018-03-17T01:34:52.883Z,-3.20
2018-03-17T01:37:18.925Z,-3.23
2018-03-17T01:39:44.981Z,-3.33
2018-03-17T01:42:11.059Z,-3.31
2018-03-17T01:44:37.112Z,-3.32
2018-03-17T01:47:03.211Z,-3.32
2018-03-17T01:49:29.242Z,-3.28
2018-03-17T01:51:55.290Z,-3.34
2018-03-17T01:54:30.268Z,-3.35
2018-03-17T01:56:56.486Z,-3.36
2018-03-17T01:59:22.538Z,-3.36
2018-03-17T02:01:48.620Z,-3.43
2018-03-17T02:04:14.657Z,-3.36
2018-03-17T02:06:40.802Z,-3.49
2018-03-17T02:09:06.988Z,-3.47
2018-03-17T02:11:33.066Z,-3.48
2018-03-17T02:13:59.143Z,-3.48
2018-03-17T02:16:25.212Z,-3.50
2018-03-17T02:18:51.267Z,-3.46
2018-03-17T02:21:17.348Z,-3.47
2018-03-17T02:23:43.411Z,-3.55
2018-03-17T02:26:09.485Z,-3.54
2018-03-17T02:28:35.535Z,-3.56
2018-03-17T02:31:01.591Z,-3.61
2018-03-17T02:33:27.817Z,-3.62
2018-03-17T02:35:53.906Z,-3.58
2018-03-17T02:38:20.015Z,-3.61
2018-03-17T02:41:00.994Z,-3.57
2018-03-17T02:43:27.073Z,-3.55
2018-03-17T02:45:53.119Z,-3.56
2018-03-17T02:48:19.154Z,-3.54
2018-03-17T02:50:45.227Z,-3.48
2018-03-17T02:53:11.269Z,-3.48
2018-03-17T02:55:37.509Z,-3.48
2018-03-17T02:58:03.557Z,-3.43
2018-03-17T03:00:29.611Z,-3.41
2018-03-17T03:02:55.710Z,-3.37
2018-03-17T03:05:21.792Z,-3.39
2018-03-17T03:07:47.829Z,-3.38
2018-03-17T03:10:13.878Z,-3.37
2018-03-17T03:12:39.971Z,-3.36
2018-03-17T03:15:06.236Z,-3.37
2018-03-17T03:17:32.275Z,-3.39
2018-03-17T03:19:58.473Z,-3.37
2018-03-17T03:22:24.553Z,-3.31
2018-03-17T03:24:50.677Z,-3.37
2018-03-17T03:27:16.729Z,-3.43
2018-03-17T03:29:42.801Z,-3.42
2018-03-17T03:32:08.877Z,-3.40
2018-03-17T03:34:34.968Z,-3.42
2018-03-17T03:37:01.063Z,-3.48
2018-03-17T03:39:27.104Z,-3.46
2018-03-17T03:41:53.177Z,-3.52
2018-03-17T03:44:19.234Z,-3.49
2018-03-17T03:46:45.294Z,-3.46
2018-03-17T03:49:11.401Z,-3.45
2018-03-17T03:51:37.484Z,-3.50
2018-03-17T03:54:03.553Z,-3.58
2018-03-17T03:56:29.598Z,-3.48
2018-03-17T03:58:55.686Z,-3.51
2018-03-17T04:01:21.894Z,-3.51
2018-03-17T04:03:47.986Z,-3.48
2018-03-17T04:06:14.056Z,-3.52
2018-03-17T04:08:40.087Z,-3.47
2018-03-17T04:11:06.207Z,-3.47
2018-03-17T04:13:32.255Z,-3.48
2018-03-17T04:15:58.271Z,-3.52
2018-03-17T04:18:24.387Z,-3.54
2018-03-17T04:20:50.441Z,-3.60
2018-03-17T04:23:17.129Z,-3.65
2018-03-17T04:25:43.183Z,-3.69
2018-03-17T04:28:09.524Z,-3.63
2018-03-17T04:30:35.669Z,-3.66
2018-03-17T04:33:01.735Z,-3.66
2018-03-17T04:35:27.958Z,-3.66
2018-03-17T04:37:54.019Z,-3.65
2018-03-17T04:40:20.096Z,-3.71
2018-03-17T04:42:46.145Z,-3.73
2018-03-17T04:45:12.250Z,-3.81
2018-03-17T04:47:38.283Z,-3.81
2018-03-17T04:50:04.549Z,-3.80
2018-03-17T04:52:30.597Z,-3.84
2018-03-17T04:54:56.643Z,-3.86
2018-03-17T04:57:22.712Z,-3.82
2018-03-17T04:59:48.900Z,-3.76
2018-03-17T05:02:14.969Z,-3.81
2018-03-17T05:04:41.022Z,-3.84
2018-03-17T05:07:07.072Z,-3.89
2018-03-17T05:09:33.122Z,-3.92
2018-03-17T05:11:59.185Z,-3.89
2018-03-17T05:14:25.242Z,-3.88
2018-03-17T05:16:51.315Z,-4.00
2018-03-17T05:19:17.391Z,-3.96
2018-03-17T05:21:43.415Z,-3.96
2018-03-17T05:24:09.523Z,-3.88
2018-03-17T05:26:35.594Z,-3.92
2018-03-17T05:29:01.651Z,-3.90
2018-03-17T05:31:27.759Z,-3.90
2018-03-17T05:33:53.814Z,-3.88
2018-03-17T05:36:20.363Z,-3.85
2018-03-17T05:38:46.423Z,-3.81
2018-03-17T05:41:12.469Z,-3.88
2018-03-17T05:43:38.697Z,-3.88
2018-03-17T05:46:04.722Z,-3.92
2018-03-17T05:48:30.790Z,-3.99
2018-03-17T05:50:56.840Z,-4.03
2018-03-17T05:53:23.208Z,-4.01
2018-03-17T05:55:49.382Z,-3.96
2018-03-17T05:58:15.496Z,-3.99
2018-03-17T06:00:41.547Z,-3.91
2018-03-17T06:03:07.588Z,-3.85
2018-03-17T06:05:33.691Z,-3.90
2018-03-17T06:07:59.788Z,-3.87
2018-03-17T06:10:25.844Z,-3.86
2018-03-17T06:12:51.938Z,-3.86
2018-03-17T06:15:18.026Z,-3.86
2018-03-17T06:17:44.255Z,-3.82
2018-03-17T06:20:10.299Z,-3.83
2018-03-17T06:22:36.338Z,-3.84
2018-03-17T06:25:02.386Z,-3.83
2018-03-17T06:27:28.414Z,-3.85
2018-03-17T06:29:54.484Z,-3.91
2018-03-17T06:32:20.528Z,-3.90
2018-03-17T06:34:46.687Z,-3.93
2018-03-17T06:37:12.781Z,-3.91
2018-03-17T06:39:38.860Z,-3.94
2018-03-17T06:42:04.953Z,-3.92
2018-03-17T06:44:31.051Z,-3.99
2018-03-17T06:46:57.136Z,-3.97
2018-03-17T06:49:23.203Z,-3.90
2018-03-17T06:51:49.279Z,-3.90
2018-03-17T06:54:15.320Z,-3.93
2018-03-17T06:56:41.367Z,-3.86
2018-03-17T06:59:07.467Z,-3.85
2018-03-17T07:01:33.524Z,-3.83
2018-03-17T07:03:59.634Z,-3.92
2018-03-17T07:06:25.703Z,-3.90
2018-03-17T07:08:51.756Z,-3.93
2018-03-17T07:11:17.867Z,-3.90
2018-03-17T07:13:43.920Z,-3.82
2018-03-17T07:16:10.107Z,-3.72
2018-03-17T07:18:36.128Z,-3.69
2018-03-17T07:21:02.203Z,-3.72
2018-03-17T07:23:28.318Z,-3.74
2018-03-17T07:25:54.341Z,-3.78
2018-03-17T07:28:20.404Z,-3.73
2018-03-17T07:30:46.475Z,-3.66
2018-03-17T07:33:12.525Z,-3.61
2018-03-17T07:35:38.705Z,-3.61
2018-03-17T07:38:04.771Z,-3.54
2018-03-17T07:40:30.816Z,-3.52
2018-03-17T07:42:56.886Z,-3.50
2018-03-17T07:45:23.107Z,-3.36
2018-03-17T07:47:49.194Z,-3.27
2018-03-17T07:50:15.267Z,-3.28
2018-03-17T07:52:41.321Z,-3.20
2018-03-17T07:55:07.403Z,-3.29
2018-03-17T07:57:33.441Z,-3.31
2018-03-17T07:59:59.497Z,-3.21
2018-03-17T08:02:25.760Z,-3.30
2018-03-17T08:04:51.814Z,-3.35
2018-03-17T08:07:17.868Z,-3.41
2018-03-17T08:09:43.925Z,-3.28
2018-03-17T08:12:10.008Z,-3.16
2018-03-17T08:14:36.116Z,-3.15
2018-03-17T08:17:02.163Z,-3.09
2018-03-17T08:19:28.275Z,-3.03
2018-03-17T08:21:54.361Z,-3.03
2018-03-17T08:24:20.423Z,-3.04
2018-03-17T08:26:46.482Z,-3.04
2018-03-17T08:29:12.534Z,-3.13
2018-03-17T08:31:38.581Z,-3.04
2018-03-17T08:34:04.655Z,-3.08
2018-03-17T08:36:30.809Z,-3.04
2018-03-17T08:38:56.865Z,-3.25
2018-03-17T08:41:22.980Z,-3.18
2018-03-17T08:43:49.152Z,-3.07
2018-03-17T08:46:15.172Z,-3.08
2018-03-17T08:48:41.230Z,-3.07
2018-03-17T08:51:07.474Z,-3.02
2018-03-17T08:53:33.513Z,-2.98
2018-03-17T08:55:59.531Z,-3.10
2018-03-17T08:58:25.572Z,-3.03
2018-03-17T09:00:51.631Z,-2.95
2018-03-17T09:03:17.675Z,-2.82
2018-03-17T09:05:43.738Z,-2.87
2018-03-17T09:08:09.797Z,-2.85
2018-03-17T09:10:35.846Z,-2.84
2018-03-17T09:13:01.977Z,-2.86
2018-03-17T09:15:28.052Z,-2.86
2018-03-17T09:17:54.167Z,-2.81
2018-03-17T09:20:20.308Z,-2.84
2018-03-17T09:22:46.392Z,-2.77
2018-03-17T09:25:12.473Z,-2.76
2018-03-17T09:27:41.271Z,-2.63
2018-03-17T09:30:07.298Z,-2.54
2018-03-17T09:32:33.363Z,-2.45
2018-03-17T09:34:59.443Z,-2.38
2018-03-17T09:37:25.586Z,-2.31
2018-03-17T09:39:52.545Z,-2.33
2018-03-17T09:42:18.725Z,-2.10
2018-03-17T09:44:44.833Z,-2.19
2018-03-17T09:47:10.914Z,-2.24
2018-03-17T09:49:36.987Z,-2.25
2018-03-17T09:52:03.052Z,-2.21
2018-03-17T09:54:29.186Z,-2.17
2018-03-17T09:56:55.243Z,-2.08
2018-03-17T09:59:21.233Z,-2.03
2018-03-17T10:01:47.313Z,-2.07
2018-03-17T10:04:13.747Z,-1.96
2018-03-17T10:06:40.155Z,-1.99
2018-03-17T10:09:06.214Z,-2.09
2018-03-17T10:11:32.275Z,-1.96
2018-03-17T10:13:58.432Z,-1.96
2018-03-17T10:16:24.464Z,-1.88
2018-03-17T10:18:50.748Z,-1.69
2018-03-17T10:21:17.046Z,-1.49
2018-03-17T10:23:43.078Z,-1.53
2018-03-17T10:26:09.170Z,-1.49
2018-03-17T10:28:35.214Z,-1.35
2018-03-17T10:31:01.283Z,-1.18
2018-03-17T10:33:27.302Z,-1.31
2018-03-17T10:35:53.449Z,-1.32
2018-03-17T10:38:19.508Z,-1.21
2018-03-17T10:40:45.774Z,-1.06
2018-03-17T10:43:11.829Z,-1.16
2018-03-17T10:45:38.192Z,-1.33
2018-03-17T10:48:05.195Z,-1.16
2018-03-17T10:50:31.352Z,-0.96
2018-03-17T10:52:57.438Z,-0.96
2018-03-17T10:55:23.486Z,-0.85
2018-03-17T10:57:49.956Z,-0.96
2018-03-17T11:00:22.124Z,-0.84
2018-03-17T11:02:52.079Z,-0.78
2018-03-17T11:05:18.146Z,-0.93
2018-03-17T11:07:44.200Z,-0.92
2018-03-17T11:10:10.249Z,-0.88
2018-03-17T11:12:36.288Z,-0.74
2018-03-17T11:15:02.571Z,-0.61
2018-03-17T11:17:28.612Z,-0.53
2018-03-17T11:19:54.660Z,-0.45
2018-03-17T11:22:20.704Z,-0.38
2018-03-17T11:24:46.814Z,-0.36
2018-03-17T11:27:12.893Z,-0.14
2018-03-17T11:29:38.978Z,0.33
2018-03-17T11:32:05.060Z,0.85
2018-03-17T11:34:31.193Z,0.99
2018-03-17T11:36:57.325Z,0.69
2018-03-17T11:39:23.336Z,0.80
2018-03-17T11:41:49.728Z,0.67
2018-03-17T11:44:15.759Z,0.49
2018-03-17T11:46:41.789Z,0.61
2018-03-17T11:49:07.886Z,0.86
2018-03-17T11:51:33.917Z,0.73
2018-03-17T11:53:59.985Z,0.68
2018-03-17T11:56:26.028Z,0.44
2018-03-17T11:58:52.118Z,0.61
2018-03-17T12:01:18.192Z,0.43
2018-03-17T12:03:44.254Z,0.17
2018-03-17T12:06:10.400Z,0.20
2018-03-17T12:08:36.453Z,-0.22
2018-03-17T12:11:02.515Z,-0.08
2018-03-17T12:13:28.646Z,-0.17
2018-03-17T12:15:54.732Z,0.16
2018-03-17T12:18:20.787Z,0.61
2018-03-17T12:20:46.867Z,0.73
2018-03-17T12:23:12.979Z,0.46
2018-03-17T12:25:39.000Z,0.49
2018-03-17T12:28:05.068Z,0.28
2018-03-17T12:30:31.142Z,0.38
2018-03-17T12:32:57.209Z,0.37
2018-03-17T12:35:23.296Z,0.26
2018-03-17T12:37:49.330Z,0.01
2018-03-17T12:40:15.521Z,0.30
2018-03-17T12:42:41.564Z,0.65
2018-03-17T12:45:07.603Z,0.51
2018-03-17T12:47:33.698Z,0.53
2018-03-17T12:49:59.741Z,0.54
2018-03-17T12:52:25.958Z,0.54
2018-03-17T12:54:52.039Z,0.28
2018-03-17T12:57:18.308Z,0.15
2018-03-17T12:59:44.367Z,0.34
2018-03-17T13:02:10.491Z,0.30
2018-03-17T13:04:36.580Z,0.31
2018-03-17T13:07:02.821Z,0.43
2018-03-17T13:09:28.862Z,0.56
2018-03-17T13:11:55.825Z,0.49
2018-03-17T13:14:21.887Z,0.45
2018-03-17T13:16:47.941Z,0.65
2018-03-17T13:19:26.347Z,1.02
2018-03-17T13:21:52.347Z,0.75
2018-03-17T13:24:18.407Z,0.88
2018-03-17T13:26:56.731Z,0.97
2018-03-17T13:29:22.802Z,1.20
2018-03-17T13:31:48.870Z,1.46
2018-03-17T13:34:15.876Z,1.64
2018-03-17T13:36:54.287Z,1.67
2018-03-17T13:39:20.336Z,1.76
2018-03-17T13:41:46.433Z,1.74
2018-03-17T13:44:12.556Z,1.87
2018-03-17T13:46:38.637Z,2.11
2018-03-17T13:49:04.690Z,1.71
2018-03-17T13:51:30.799Z,1.53
2018-03-17T13:53:56.894Z,1.32
2018-03-17T13:56:22.935Z,1.29
2018-03-17T13:58:48.973Z,0.97
2018-03-17T14:01:15.246Z,1.00
2018-03-17T14:03:41.283Z,0.59
2018-03-17T14:06:07.438Z,0.75
2018-03-17T14:08:33.599Z,0.47
2018-03-17T14:10:59.759Z,0.59
2018-03-17T14:13:25.870Z,0.84
2018-03-17T14:15:51.926Z,0.84
2018-03-17T14:18:18.022Z,0.71
2018-03-17T14:20:44.078Z,0.52
2018-03-17T14:23:10.369Z,0.28
2018-03-17T14:25:37.222Z,0.37
2018-03-17T14:28:03.355Z,0.41
2018-03-17T14:30:29.427Z,0.33
2018-03-17T14:32:55.552Z,0.32
2018-03-17T14:35:21.622Z,0.21
2018-03-17T14:37:47.719Z,0.27
2018-03-17T14:40:13.819Z,0.29
2018-03-17T14:42:39.837Z,0.31
2018-03-17T14:45:06.090Z,0.31
2018-03-17T14:47:32.172Z,0.33
2018-03-17T14:49:58.272Z,0.39
2018-03-17T14:52:24.365Z,0.33
2018-03-17T14:54:50.388Z,0.30
2018-03-17T14:57:17.089Z,0.11
2018-03-17T14:59:43.202Z,-0.05
2018-03-17T15:02:09.303Z,-0.07
2018-03-17T15:04:35.377Z,-0.05
2018-03-17T15:07:01.493Z,-0.01
2018-03-17T15:09:27.574Z,0.02
2018-03-17T15:11:53.787Z,0.10
2018-03-17T15:14:19.855Z,-0.14
2018-03-17T15:16:45.890Z,-0.11
2018-03-17T15:19:11.953Z,-0.12
2018-03-17T15:21:38.015Z,-0.15
2018-03-17T15:24:04.142Z,-0.19
2018-03-17T15:26:30.214Z,-0.16
2018-03-17T15:28:56.269Z,-0.28
2018-03-17T15:31:22.390Z,-0.15
2018-03-17T15:33:48.494Z,-0.19
2018-03-17T15:36:14.539Z,-0.30
2018-03-17T15:38:40.699Z,-0.29
2018-03-17T15:41:06.937Z,-0.19
2018-03-17T15:43:34.010Z,-0.20
2018-03-17T15:46:00.086Z,-0.26
2018-03-17T15:48:26.143Z,-0.33
2018-03-17T15:50:52.182Z,-0.37
2018-03-17T15:53:18.247Z,-0.45
2018-03-17T15:55:44.311Z,-0.49
2018-03-17T15:58:10.464Z,-0.54
2018-03-17T16:00:36.566Z,-0.44
2018-03-17T16:03:02.673Z,-0.48
2018-03-17T16:05:28.765Z,-0.52
2018-03-17T16:07:54.849Z,-0.61
2018-03-17T16:10:20.882Z,-0.62
2018-03-17T16:12:47.001Z,-0.57
2018-03-17T16:15:13.061Z,-0.57
2018-03-17T16:17:40.598Z,-0.61
2018-03-17T16:20:06.683Z,-0.57
2018-03-17T16:22:47.840Z,-0.52
2018-03-17T16:25:13.908Z,-0.55
2018-03-17T16:27:39.964Z,-0.52
2018-03-17T16:30:06.094Z,-0.56
2018-03-17T16:32:32.176Z,-0.55
2018-03-17T16:34:58.390Z,-0.63
2018-03-17T16:37:24.447Z,-0.69
2018-03-17T16:39:50.675Z,-0.63
2018-03-17T16:42:16.738Z,-0.61
2018-03-17T16:44:43.377Z,-0.70
2018-03-17T16:47:09.438Z,-0.66
2018-03-17T16:49:36.107Z,-0.65
2018-03-17T16:52:02.194Z,-0.79
2018-03-17T16:54:28.266Z,-0.80
2018-03-17T16:56:54.368Z,-0.80
2018-03-17T16:59:20.459Z,-0.79
2018-03-17T17:01:46.598Z,-0.91
2018-03-17T17:04:12.675Z,-0.88
2018-03-17T17:06:38.818Z,-0.89
2018-03-17T17:09:04.838Z,-0.91
2018-03-17T17:11:30.964Z,-0.96
2018-03-17T17:13:58.062Z,-0.92
2018-03-17T17:16:24.115Z,-0.96
2018-03-17T17:18:50.632Z,-1.00
2018-03-17T17:21:16.687Z,-1.01
2018-03-17T17:23:42.834Z,-1.06
2018-03-17T17:26:08.892Z,-1.07
2018-03-17T17:28:34.969Z,-1.06
2018-03-17T17:31:02.098Z,-1.05
2018-03-17T17:33:28.173Z,-1.05
2018-03-17T17:35:54.247Z,-1.05
2018-03-17T17:38:20.585Z,-1.08
2018-03-17T17:40:46.815Z,-1.10
2018-03-17T17:43:13.093Z,-1.02
2018-03-17T17:45:39.175Z,-1.01
2018-03-17T17:48:05.250Z,-0.98
2018-03-17T17:50:31.336Z,-1.09
2018-03-17T17:52:57.412Z,-1.07
2018-03-17T17:55:23.473Z,-1.09
2018-03-17T17:57:49.540Z,-1.04
2018-03-17T18:00:15.612Z,-1.01
2018-03-17T18:02:41.758Z,-1.04
2018-03-17T18:05:07.863Z,-1.03
2018-03-17T18:07:33.913Z,-1.11
2018-03-17T18:10:00.723Z,-1.06
2018-03-17T18:12:26.833Z,-1.10
2018-03-17T18:14:52.986Z,-1.03
2018-03-17T18:17:19.093Z,-1.04
2018-03-17T18:19:45.147Z,-1.03
2018-03-17T18:22:11.268Z,-1.08
2018-03-17T18:24:37.347Z,-1.07
2018-03-17T18:27:03.577Z,-1.12
2018-03-17T18:29:29.678Z,-1.11
2018-03-17T18:31:55.772Z,-1.16
2018-03-17T18:34:21.858Z,-1.20
2018-03-17T18:36:47.910Z,-1.19
2018-03-17T18:39:14.039Z,-1.14
2018-03-17T18:41:40.226Z,-1.12
2018-03-17T18:44:06.683Z,-1.19
2018-03-17T18:46:32.859Z,-1.12
2018-03-17T18:48:58.890Z,-1.15
2018-03-17T18:51:24.963Z,-1.20
2018-03-17T18:53:51.044Z,-1.21
2018-03-17T18:56:17.162Z,-1.19
2018-03-17T18:58:43.280Z,-1.18
2018-03-17T19:01:09.733Z,-1.12
2018-03-17T19:03:35.790Z,-1.18
2018-03-17T19:06:01.973Z,-1.26
2018-03-17T19:08:28.635Z,-1.28
2018-03-17T19:10:54.755Z,-1.27
2018-03-17T19:13:20.859Z,-1.25
2018-03-17T19:15:46.958Z,-1.23
2018-03-17T19:18:13.087Z,-1.19
2018-03-17T19:20:39.166Z,-1.18
2018-03-17T19:23:05.243Z,-1.21
2018-03-17T19:25:31.395Z,-1.20
2018-03-17T19:27:57.465Z,-1.25
2018-03-17T19:30:23.564Z,-1.19
2018-03-17T19:32:49.680Z,-1.21
2018-03-17T19:35:15.816Z,-1.19
2018-03-17T19:37:41.902Z,-1.25
2018-03-17T19:40:07.999Z,-1.18
2018-03-17T19:42:34.229Z,-1.22
2018-03-17T19:45:00.346Z,-1.28
2018-03-17T19:47:26.416Z,-1.28
2018-03-17T19:49:52.464Z,-1.27
2018-03-17T19:52:19.506Z,-1.26
2018-03-17T19:54:45.539Z,-1.24
2018-03-17T19:57:11.630Z,-1.26
2018-03-17T19:59:37.654Z,-1.30
2018-03-17T20:02:03.843Z,-1.38
2018-03-17T20:04:30.034Z,-1.35
2018-03-17T20:06:57.139Z,-1.38
2018-03-17T20:09:24.478Z,-1.34
2018-03-17T20:11:50.552Z,-1.37
2018-03-17T20:14:16.638Z,-1.46
2018-03-17T20:16:42.715Z,-1.45
2018-03-17T20:19:08.848Z,-1.47
2018-03-17T20:21:35.866Z,-1.47
2018-03-17T20:24:01.922Z,-1.48
2018-03-17T20:26:27.986Z,-1.45
2018-03-17T20:28:54.057Z,-1.48
2018-03-17T20:31:20.174Z,-1.47
2018-03-17T20:33:46.254Z,-1.48
2018-03-17T20:36:12.310Z,-1.44
2018-03-17T20:38:38.599Z,-1.45
2018-03-17T20:41:04.644Z,-1.49
2018-03-17T20:43:30.709Z,-1.53
2018-03-17T20:45:56.778Z,-1.55
2018-03-17T20:48:22.876Z,-1.48
2018-03-17T20:50:48.965Z,-1.50
2018-03-17T20:53:15.395Z,-1.44
2018-03-17T20:55:41.592Z,-1.48
2018-03-17T20:58:07.655Z,-1.47
2018-03-17T21:00:33.742Z,-1.48
2018-03-17T21:02:59.793Z,-1.55
2018-03-17T21:05:26.490Z,-1.47
2018-03-17T21:07:53.146Z,-1.50
2018-03-17T21:10:20.235Z,-1.53
2018-03-17T21:12:46.300Z,-1.54
2018-03-17T21:15:12.390Z,-1.53
2018-03-17T21:17:38.465Z,-1.59
2018-03-17T21:20:04.554Z,-1.55
2018-03-17T21:22:30.662Z,-1.62
2018-03-17T21:24:56.725Z,-1.69
2018-03-17T21:27:22.808Z,-1.66
2018-03-17T21:29:49.103Z,-1.64
2018-03-17T21:32:15.183Z,-1.62
2018-03-17T21:34:41.458Z,-1.66
2018-03-17T21:37:07.547Z,-1.68
2018-03-17T21:39:33.677Z,-1.60
2018-03-17T21:41:59.747Z,-1.65
2018-03-17T21:44:25.914Z,-1.66
2018-03-17T21:46:52.008Z,-1.74
2018-03-17T21:49:19.198Z,-1.69
2018-03-17T21:51:45.281Z,-1.69
2018-03-17T21:54:11.342Z,-1.76
2018-03-17T21:56:37.663Z,-1.80
2018-03-17T21:59:03.693Z,-1.80
2018-03-17T22:01:29.969Z,-1.79
2018-03-17T22:03:56.007Z,-1.83
2018-03-17T22:06:22.101Z,-1.76
2018-03-17T22:08:48.351Z,-1.83
2018-03-17T22:11:14.417Z,-1.84
2018-03-17T22:13:40.573Z,-1.84
2018-03-17T22:16:06.740Z,-1.84
2018-03-17T22:18:33.075Z,-1.87
2018-03-17T22:20:59.133Z,-1.84
2018-03-17T22:23:25.371Z,-1.85
2018-03-17T22:25:51.390Z,-1.86
2018-03-17T22:28:17.467Z,-1.90
2018-03-17T22:30:43.671Z,-1.90
2018-03-17T22:33:24.682Z,-1.94
2018-03-17T22:35:50.719Z,-2.01
2018-03-17T22:38:16.780Z,-2.00
2018-03-17T22:40:42.862Z,-2.03
2018-03-17T22:43:08.927Z,-2.02
2018-03-17T22:45:35.034Z,-2.11
2018-03-17T22:48:01.106Z,-2.15
2018-03-17T22:50:27.176Z,-2.14
2018-03-17T22:52:53.392Z,-2.11
2018-03-17T22:55:19.438Z,-2.13
2018-03-17T22:57:45.564Z,-2.18
2018-03-17T23:00:11.571Z,-2.15
2018-03-17T23:02:37.698Z,-2.14
2018-03-17T23:05:03.762Z,-2.24
2018-03-17T23:07:30.450Z,-2.26
2018-03-17T23:09:56.551Z,-2.25
2018-03-17T23:12:22.623Z,-2.24
2018-03-17T23:14:48.681Z,-2.27
2018-03-17T23:17:14.707Z,-2.27
2018-03-17T23:19:40.809Z,-2.29
2018-03-17T23:22:06.867Z,-2.33
2018-03-17T23:24:33.020Z,-2.33
2018-03-17T23:26:59.042Z,-2.34
2018-03-17T23:29:25.103Z,-2.38
2018-03-17T23:31:51.156Z,-2.43
2018-03-17T23:34:17.217Z,-2.40
2018-03-17T23:36:43.276Z,-2.40
2018-03-17T23:42:01.520Z,-2.42
2018-03-17T23:44:27.580Z,-2.44
2018-03-17T23:46:53.618Z,-2.45
2018-03-17T23:49:19.639Z,-2.49
2018-03-17T23:51:45.691Z,-2.49
2018-03-17T23:54:11.712Z,-2.49
2018-03-17T23:56:37.745Z,-2.52
2018-03-17T23:59:03.777Z,-2.57
